sensor_id;sensor_type;location;lat;lon;timestamp;P1;durP1;ratioP1;P2;durP2;ratioP2
11604;SDS011;5858;43.076;25.626;2024-03-22T00:00:11;6.37;;;4.47;;
11604;SDS011;5858;43.076;25.626;2024-03-22T00:02:37;6.50;;;4.60;;
11604;SDS011;5858;43.076;25.626;2024-03-22T00:05:04;6.03;;;4.60;;
11604;SDS011;5858;43.076;25.626;2024-03-22T00:07:30;6.03;;;4.90;;
11604;SDS011;5858;43.076;25.626;2024-03-22T00:09:57;7.43;;;5.27;;
11604;SDS011;5858;43.076;25.626;2024-03-22T00:12:23;5.67;;;4.47;;
11604;SDS011;5858;43.076;25.626;2024-03-22T00:14:50;6.80;;;4.10;;
11604;SDS011;5858;43.076;25.626;2024-03-22T00:17:17;5.53;;;3.63;;
11604;SDS011;5858;43.076;25.626;2024-03-22T00:19:44;5.67;;;3.70;;
11604;SDS011;5858;43.076;25.626;2024-03-22T00:22:10;5.57;;;4.70;;
11604;SDS011;5858;43.076;25.626;2024-03-22T00:24:37;7.00;;;4.97;;
11604;SDS011;5858;43.076;25.626;2024-03-22T00:27:03;6.33;;;4.20;;
11604;SDS011;5858;43.076;25.626;2024-03-22T00:29:30;5.10;;;4.27;;
11604;SDS011;5858;43.076;25.626;2024-03-22T00:31:56;6.93;;;3.80;;
11604;SDS011;5858;43.076;25.626;2024-03-22T00:34:24;7.00;;;4.67;;
11604;SDS011;5858;43.076;25.626;2024-03-22T00:36:50;7.63;;;5.40;;
11604;SDS011;5858;43.076;25.626;2024-03-22T00:39:17;5.33;;;4.27;;
11604;SDS011;5858;43.076;25.626;2024-03-22T00:41:42;9.40;;;5.00;;
11604;SDS011;5858;43.076;25.626;2024-03-22T00:44:09;5.13;;;4.43;;
11604;SDS011;5858;43.076;25.626;2024-03-22T00:46:35;6.63;;;4.57;;
11604;SDS011;5858;43.076;25.626;2024-03-22T00:49:02;6.60;;;4.83;;
11604;SDS011;5858;43.076;25.626;2024-03-22T00:51:29;8.27;;;5.07;;
11604;SDS011;5858;43.076;25.626;2024-03-22T00:53:56;4.43;;;3.30;;
11604;SDS011;5858;43.076;25.626;2024-03-22T00:56:22;5.53;;;3.93;;
11604;SDS011;5858;43.076;25.626;2024-03-22T00:58:49;5.43;;;4.80;;
11604;SDS011;5858;43.076;25.626;2024-03-22T01:01:15;6.40;;;4.60;;
11604;SDS011;5858;43.076;25.626;2024-03-22T01:03:41;9.93;;;5.00;;
11604;SDS011;5858;43.076;25.626;2024-03-22T01:06:07;6.53;;;4.40;;
11604;SDS011;5858;43.076;25.626;2024-03-22T01:08:35;7.37;;;5.00;;
11604;SDS011;5858;43.076;25.626;2024-03-22T01:11:01;5.27;;;4.50;;
11604;SDS011;5858;43.076;25.626;2024-03-22T01:13:28;7.10;;;4.63;;
11604;SDS011;5858;43.076;25.626;2024-03-22T01:15:54;4.30;;;3.90;;
11604;SDS011;5858;43.076;25.626;2024-03-22T01:18:21;5.23;;;4.30;;
11604;SDS011;5858;43.076;25.626;2024-03-22T01:20:47;5.43;;;4.03;;
11604;SDS011;5858;43.076;25.626;2024-03-22T01:23:14;5.60;;;4.13;;
11604;SDS011;5858;43.076;25.626;2024-03-22T01:25:42;5.17;;;4.43;;
11604;SDS011;5858;43.076;25.626;2024-03-22T01:28:08;5.97;;;4.10;;
11604;SDS011;5858;43.076;25.626;2024-03-22T01:30:34;5.67;;;4.50;;
11604;SDS011;5858;43.076;25.626;2024-03-22T01:33:02;6.27;;;4.57;;
11604;SDS011;5858;43.076;25.626;2024-03-22T01:35:28;5.73;;;4.90;;
11604;SDS011;5858;43.076;25.626;2024-03-22T01:37:54;5.03;;;4.27;;
11604;SDS011;5858;43.076;25.626;2024-03-22T01:40:20;4.67;;;4.17;;
11604;SDS011;5858;43.076;25.626;2024-03-22T01:42:48;6.53;;;4.33;;
11604;SDS011;5858;43.076;25.626;2024-03-22T01:45:18;5.17;;;4.17;;
11604;SDS011;5858;43.076;25.626;2024-03-22T01:47:45;5.07;;;4.20;;
11604;SDS011;5858;43.076;25.626;2024-03-22T01:50:11;7.07;;;4.57;;
11604;SDS011;5858;43.076;25.626;2024-03-22T01:52:38;5.87;;;4.53;;
11604;SDS011;5858;43.076;25.626;2024-03-22T01:55:07;6.87;;;4.67;;
11604;SDS011;5858;43.076;25.626;2024-03-22T01:57:34;5.33;;;4.40;;
11604;SDS011;5858;43.076;25.626;2024-03-22T02:00:03;5.57;;;4.17;;
11604;SDS011;5858;43.076;25.626;2024-03-22T02:02:31;6.63;;;4.70;;
11604;SDS011;5858;43.076;25.626;2024-03-22T02:04:57;5.83;;;4.20;;
11604;SDS011;5858;43.076;25.626;2024-03-22T02:07:24;5.10;;;4.30;;
11604;SDS011;5858;43.076;25.626;2024-03-22T02:09:49;4.83;;;4.10;;
11604;SDS011;5858;43.076;25.626;2024-03-22T02:12:17;5.23;;;4.30;;
11604;SDS011;5858;43.076;25.626;2024-03-22T02:14:42;7.33;;;4.10;;
11604;SDS011;5858;43.076;25.626;2024-03-22T02:17:11;4.73;;;4.23;;
11604;SDS011;5858;43.076;25.626;2024-03-22T02:19:36;4.63;;;3.97;;
11604;SDS011;5858;43.076;25.626;2024-03-22T02:22:03;4.63;;;4.03;;
11604;SDS011;5858;43.076;25.626;2024-03-22T02:24:31;5.63;;;4.17;;
11604;SDS011;5858;43.076;25.626;2024-03-22T02:26:58;4.63;;;3.87;;
11604;SDS011;5858;43.076;25.626;2024-03-22T02:29:23;4.40;;;3.97;;
11604;SDS011;5858;43.076;25.626;2024-03-22T02:31:50;5.53;;;3.97;;
11604;SDS011;5858;43.076;25.626;2024-03-22T02:34:16;5.53;;;4.33;;
11604;SDS011;5858;43.076;25.626;2024-03-22T02:36:43;9.50;;;5.57;;
11604;SDS011;5858;43.076;25.626;2024-03-22T02:39:09;8.10;;;6.17;;
11604;SDS011;5858;43.076;25.626;2024-03-22T02:41:37;10.47;;;7.00;;
11604;SDS011;5858;43.076;25.626;2024-03-22T02:44:03;10.73;;;8.03;;
11604;SDS011;5858;43.076;25.626;2024-03-22T02:46:30;13.17;;;7.90;;
11604;SDS011;5858;43.076;25.626;2024-03-22T02:48:56;11.63;;;8.23;;
11604;SDS011;5858;43.076;25.626;2024-03-22T02:51:23;10.70;;;8.77;;
11604;SDS011;5858;43.076;25.626;2024-03-22T02:53:48;11.40;;;7.53;;
11604;SDS011;5858;43.076;25.626;2024-03-22T02:56:16;13.27;;;9.37;;
11604;SDS011;5858;43.076;25.626;2024-03-22T02:58:43;14.60;;;9.67;;
11604;SDS011;5858;43.076;25.626;2024-03-22T03:01:10;11.93;;;8.77;;
11604;SDS011;5858;43.076;25.626;2024-03-22T03:03:36;13.53;;;8.23;;
11604;SDS011;5858;43.076;25.626;2024-03-22T03:06:03;12.03;;;8.80;;
11604;SDS011;5858;43.076;25.626;2024-03-22T03:08:29;11.23;;;7.73;;
11604;SDS011;5858;43.076;25.626;2024-03-22T03:10:56;14.03;;;7.53;;
11604;SDS011;5858;43.076;25.626;2024-03-22T03:13:22;9.20;;;6.70;;
11604;SDS011;5858;43.076;25.626;2024-03-22T03:15:50;10.27;;;6.60;;
11604;SDS011;5858;43.076;25.626;2024-03-22T03:18:16;7.93;;;5.90;;
11604;SDS011;5858;43.076;25.626;2024-03-22T03:20:43;6.23;;;5.63;;
11604;SDS011;5858;43.076;25.626;2024-03-22T03:23:09;8.53;;;5.80;;
11604;SDS011;5858;43.076;25.626;2024-03-22T03:25:35;7.87;;;5.13;;
11604;SDS011;5858;43.076;25.626;2024-03-22T03:28:01;7.80;;;4.60;;
11604;SDS011;5858;43.076;25.626;2024-03-22T03:30:28;8.37;;;4.83;;
11604;SDS011;5858;43.076;25.626;2024-03-22T03:32:55;5.87;;;4.47;;
11604;SDS011;5858;43.076;25.626;2024-03-22T03:35:22;5.03;;;4.40;;
11604;SDS011;5858;43.076;25.626;2024-03-22T03:37:49;5.60;;;4.17;;
11604;SDS011;5858;43.076;25.626;2024-03-22T03:40:16;5.37;;;4.13;;
11604;SDS011;5858;43.076;25.626;2024-03-22T03:42:41;5.40;;;4.40;;
11604;SDS011;5858;43.076;25.626;2024-03-22T03:45:08;5.50;;;4.50;;
11604;SDS011;5858;43.076;25.626;2024-03-22T03:47:34;5.53;;;4.07;;
11604;SDS011;5858;43.076;25.626;2024-03-22T03:50:03;5.17;;;4.47;;
11604;SDS011;5858;43.076;25.626;2024-03-22T03:52:29;6.13;;;4.47;;
11604;SDS011;5858;43.076;25.626;2024-03-22T03:54:56;8.50;;;4.67;;
11604;SDS011;5858;43.076;25.626;2024-03-22T03:57:21;6.90;;;5.57;;
11604;SDS011;5858;43.076;25.626;2024-03-22T03:59:50;6.10;;;5.50;;
11604;SDS011;5858;43.076;25.626;2024-03-22T04:02:15;5.37;;;4.77;;
11604;SDS011;5858;43.076;25.626;2024-03-22T04:04:42;7.47;;;5.50;;
11604;SDS011;5858;43.076;25.626;2024-03-22T04:07:09;6.83;;;5.47;;
11604;SDS011;5858;43.076;25.626;2024-03-22T04:09:36;8.83;;;5.13;;
11604;SDS011;5858;43.076;25.626;2024-03-22T04:12:02;6.77;;;4.50;;
11604;SDS011;5858;43.076;25.626;2024-03-22T04:14:30;6.03;;;4.60;;
11604;SDS011;5858;43.076;25.626;2024-03-22T04:16:56;6.90;;;5.27;;
11604;SDS011;5858;43.076;25.626;2024-03-22T04:19:23;8.33;;;5.87;;
11604;SDS011;5858;43.076;25.626;2024-03-22T04:21:49;7.83;;;4.90;;
11604;SDS011;5858;43.076;25.626;2024-03-22T04:24:20;6.53;;;5.37;;
11604;SDS011;5858;43.076;25.626;2024-03-22T04:26:46;7.70;;;4.93;;
11604;SDS011;5858;43.076;25.626;2024-03-22T04:29:18;5.37;;;4.43;;
11604;SDS011;5858;43.076;25.626;2024-03-22T04:31:43;6.77;;;4.90;;
11604;SDS011;5858;43.076;25.626;2024-03-22T04:34:10;8.83;;;4.73;;
11604;SDS011;5858;43.076;25.626;2024-03-22T04:36:36;7.17;;;4.40;;
11604;SDS011;5858;43.076;25.626;2024-03-22T04:39:03;6.87;;;5.20;;
11604;SDS011;5858;43.076;25.626;2024-03-22T04:41:31;5.53;;;4.63;;
11604;SDS011;5858;43.076;25.626;2024-03-22T04:43:58;7.97;;;5.00;;
11604;SDS011;5858;43.076;25.626;2024-03-22T04:46:25;7.90;;;4.90;;
11604;SDS011;5858;43.076;25.626;2024-03-22T04:48:51;7.00;;;4.77;;
11604;SDS011;5858;43.076;25.626;2024-03-22T04:51:17;6.73;;;5.40;;
11604;SDS011;5858;43.076;25.626;2024-03-22T04:53:44;8.73;;;5.47;;
11604;SDS011;5858;43.076;25.626;2024-03-22T04:56:10;7.20;;;5.80;;
11604;SDS011;5858;43.076;25.626;2024-03-22T04:58:38;7.57;;;6.10;;
11604;SDS011;5858;43.076;25.626;2024-03-22T05:01:04;8.30;;;6.83;;
11604;SDS011;5858;43.076;25.626;2024-03-22T05:03:31;8.33;;;5.53;;
11604;SDS011;5858;43.076;25.626;2024-03-22T05:05:57;12.80;;;6.30;;
11604;SDS011;5858;43.076;25.626;2024-03-22T05:08:24;12.50;;;5.70;;
11604;SDS011;5858;43.076;25.626;2024-03-22T05:10:49;9.73;;;5.60;;
11604;SDS011;5858;43.076;25.626;2024-03-22T05:13:16;9.23;;;6.10;;
11604;SDS011;5858;43.076;25.626;2024-03-22T05:15:43;11.43;;;6.93;;
11604;SDS011;5858;43.076;25.626;2024-03-22T05:18:11;14.93;;;7.70;;
11604;SDS011;5858;43.076;25.626;2024-03-22T05:20:36;9.43;;;7.13;;
11604;SDS011;5858;43.076;25.626;2024-03-22T05:23:03;12.00;;;8.73;;
11604;SDS011;5858;43.076;25.626;2024-03-22T05:25:29;17.77;;;9.07;;
11604;SDS011;5858;43.076;25.626;2024-03-22T05:27:56;16.80;;;8.90;;
11604;SDS011;5858;43.076;25.626;2024-03-22T05:30:21;20.30;;;9.40;;
11604;SDS011;5858;43.076;25.626;2024-03-22T05:32:50;16.90;;;9.30;;
11604;SDS011;5858;43.076;25.626;2024-03-22T05:35:16;17.17;;;9.20;;
11604;SDS011;5858;43.076;25.626;2024-03-22T05:37:43;15.77;;;8.97;;
11604;SDS011;5858;43.076;25.626;2024-03-22T05:40:09;12.97;;;7.13;;
11604;SDS011;5858;43.076;25.626;2024-03-22T05:42:37;11.10;;;6.53;;
11604;SDS011;5858;43.076;25.626;2024-03-22T05:45:03;10.83;;;6.43;;
11604;SDS011;5858;43.076;25.626;2024-03-22T05:47:31;10.47;;;6.57;;
11604;SDS011;5858;43.076;25.626;2024-03-22T05:50:00;11.90;;;6.70;;
11604;SDS011;5858;43.076;25.626;2024-03-22T05:52:27;13.43;;;7.20;;
11604;SDS011;5858;43.076;25.626;2024-03-22T05:54:53;15.00;;;7.10;;
11604;SDS011;5858;43.076;25.626;2024-03-22T05:57:20;16.67;;;8.37;;
11604;SDS011;5858;43.076;25.626;2024-03-22T05:59:46;14.20;;;8.30;;
11604;SDS011;5858;43.076;25.626;2024-03-22T06:02:14;12.63;;;6.73;;
11604;SDS011;5858;43.076;25.626;2024-03-22T06:04:40;14.63;;;7.17;;
11604;SDS011;5858;43.076;25.626;2024-03-22T06:07:08;17.90;;;7.30;;
11604;SDS011;5858;43.076;25.626;2024-03-22T06:09:35;13.20;;;7.57;;
11604;SDS011;5858;43.076;25.626;2024-03-22T06:12:10;13.17;;;6.70;;
11604;SDS011;5858;43.076;25.626;2024-03-22T06:14:36;12.30;;;5.90;;
11604;SDS011;5858;43.076;25.626;2024-03-22T06:17:03;13.20;;;7.07;;
11604;SDS011;5858;43.076;25.626;2024-03-22T06:19:29;12.40;;;7.10;;
11604;SDS011;5858;43.076;25.626;2024-03-22T06:21:56;9.07;;;6.70;;
11604;SDS011;5858;43.076;25.626;2024-03-22T06:24:23;16.13;;;7.57;;
11604;SDS011;5858;43.076;25.626;2024-03-22T06:26:50;10.43;;;6.83;;
11604;SDS011;5858;43.076;25.626;2024-03-22T06:29:16;6.97;;;5.97;;
11604;SDS011;5858;43.076;25.626;2024-03-22T06:31:43;7.87;;;6.00;;
11604;SDS011;5858;43.076;25.626;2024-03-22T06:34:08;10.80;;;6.27;;
11604;SDS011;5858;43.076;25.626;2024-03-22T06:36:35;10.13;;;6.17;;
11604;SDS011;5858;43.076;25.626;2024-03-22T06:39:01;7.20;;;5.83;;
11604;SDS011;5858;43.076;25.626;2024-03-22T06:41:33;9.03;;;5.80;;
11604;SDS011;5858;43.076;25.626;2024-03-22T06:44:00;7.77;;;5.50;;
11604;SDS011;5858;43.076;25.626;2024-03-22T06:46:27;9.87;;;5.27;;
11604;SDS011;5858;43.076;25.626;2024-03-22T06:48:53;6.07;;;4.67;;
11604;SDS011;5858;43.076;25.626;2024-03-22T06:51:20;6.10;;;4.17;;
11604;SDS011;5858;43.076;25.626;2024-03-22T06:53:46;6.60;;;4.23;;
11604;SDS011;5858;43.076;25.626;2024-03-22T06:56:13;4.23;;;3.20;;
11604;SDS011;5858;43.076;25.626;2024-03-22T06:58:40;4.10;;;3.13;;
11604;SDS011;5858;43.076;25.626;2024-03-22T07:01:07;5.50;;;3.60;;
11604;SDS011;5858;43.076;25.626;2024-03-22T07:03:33;4.13;;;3.03;;
11604;SDS011;5858;43.076;25.626;2024-03-22T07:06:00;4.10;;;3.40;;
11604;SDS011;5858;43.076;25.626;2024-03-22T07:08:26;6.27;;;4.80;;
11604;SDS011;5858;43.076;25.626;2024-03-22T07:10:53;5.17;;;3.63;;
11604;SDS011;5858;43.076;25.626;2024-03-22T07:13:19;4.97;;;4.10;;
11604;SDS011;5858;43.076;25.626;2024-03-22T07:15:48;4.90;;;4.17;;
11604;SDS011;5858;43.076;25.626;2024-03-22T07:18:14;7.33;;;4.17;;
11604;SDS011;5858;43.076;25.626;2024-03-22T07:20:41;4.23;;;3.83;;
11604;SDS011;5858;43.076;25.626;2024-03-22T07:23:07;6.13;;;4.00;;
11604;SDS011;5858;43.076;25.626;2024-03-22T07:25:34;5.87;;;4.50;;
11604;SDS011;5858;43.076;25.626;2024-03-22T07:28:00;7.13;;;4.93;;
11604;SDS011;5858;43.076;25.626;2024-03-22T07:30:30;7.50;;;4.10;;
11604;SDS011;5858;43.076;25.626;2024-03-22T07:32:57;7.27;;;4.33;;
11604;SDS011;5858;43.076;25.626;2024-03-22T07:35:24;6.70;;;4.50;;
11604;SDS011;5858;43.076;25.626;2024-03-22T07:37:50;4.53;;;4.07;;
11604;SDS011;5858;43.076;25.626;2024-03-22T07:40:17;6.40;;;4.30;;
11604;SDS011;5858;43.076;25.626;2024-03-22T07:42:45;10.27;;;5.13;;
11604;SDS011;5858;43.076;25.626;2024-03-22T07:45:11;7.43;;;4.63;;
11604;SDS011;5858;43.076;25.626;2024-03-22T07:47:38;5.93;;;4.03;;
11604;SDS011;5858;43.076;25.626;2024-03-22T07:50:08;5.07;;;4.30;;
11604;SDS011;5858;43.076;25.626;2024-03-22T07:52:35;4.97;;;3.80;;
11604;SDS011;5858;43.076;25.626;2024-03-22T07:55:01;7.50;;;4.40;;
11604;SDS011;5858;43.076;25.626;2024-03-22T07:57:28;8.03;;;4.23;;
11604;SDS011;5858;43.076;25.626;2024-03-22T07:59:55;4.00;;;3.50;;
11604;SDS011;5858;43.076;25.626;2024-03-22T08:02:22;4.60;;;3.33;;
11604;SDS011;5858;43.076;25.626;2024-03-22T08:04:48;4.17;;;3.60;;
11604;SDS011;5858;43.076;25.626;2024-03-22T08:07:17;4.07;;;3.27;;
11604;SDS011;5858;43.076;25.626;2024-03-22T08:09:43;3.77;;;3.43;;
11604;SDS011;5858;43.076;25.626;2024-03-22T08:12:09;3.90;;;3.30;;
11604;SDS011;5858;43.076;25.626;2024-03-22T08:14:35;5.37;;;3.77;;
11604;SDS011;5858;43.076;25.626;2024-03-22T08:17:02;5.17;;;3.83;;
11604;SDS011;5858;43.076;25.626;2024-03-22T08:19:28;5.50;;;4.80;;
11604;SDS011;5858;43.076;25.626;2024-03-22T08:21:55;4.17;;;3.67;;
11604;SDS011;5858;43.076;25.626;2024-03-22T08:24:23;4.30;;;3.87;;
11604;SDS011;5858;43.076;25.626;2024-03-22T08:26:51;5.63;;;5.13;;
11604;SDS011;5858;43.076;25.626;2024-03-22T08:29:16;6.97;;;5.50;;
11604;SDS011;5858;43.076;25.626;2024-03-22T08:31:43;4.40;;;4.00;;
11604;SDS011;5858;43.076;25.626;2024-03-22T08:34:09;4.10;;;3.23;;
11604;SDS011;5858;43.076;25.626;2024-03-22T08:36:36;3.47;;;2.80;;
11604;SDS011;5858;43.076;25.626;2024-03-22T08:39:02;3.43;;;2.90;;
11604;SDS011;5858;43.076;25.626;2024-03-22T08:41:31;4.03;;;3.23;;
11604;SDS011;5858;43.076;25.626;2024-03-22T08:43:57;4.67;;;4.17;;
11604;SDS011;5858;43.076;25.626;2024-03-22T08:46:24;3.47;;;2.90;;
11604;SDS011;5858;43.076;25.626;2024-03-22T08:48:51;3.33;;;3.03;;
11604;SDS011;5858;43.076;25.626;2024-03-22T08:51:19;4.00;;;3.47;;
11604;SDS011;5858;43.076;25.626;2024-03-22T08:53:44;4.73;;;3.00;;
11604;SDS011;5858;43.076;25.626;2024-03-22T08:56:11;3.77;;;3.10;;
11604;SDS011;5858;43.076;25.626;2024-03-22T08:58:38;5.37;;;3.13;;
11604;SDS011;5858;43.076;25.626;2024-03-22T09:01:05;2.93;;;2.47;;
11604;SDS011;5858;43.076;25.626;2024-03-22T09:03:31;6.10;;;3.23;;
11604;SDS011;5858;43.076;25.626;2024-03-22T09:05:58;4.97;;;3.73;;
11604;SDS011;5858;43.076;25.626;2024-03-22T09:08:24;5.97;;;3.57;;
11604;SDS011;5858;43.076;25.626;2024-03-22T09:10:54;4.07;;;2.60;;
11604;SDS011;5858;43.076;25.626;2024-03-22T09:13:20;2.80;;;2.40;;
11604;SDS011;5858;43.076;25.626;2024-03-22T09:15:48;3.57;;;2.17;;
11604;SDS011;5858;43.076;25.626;2024-03-22T09:18:21;2.27;;;1.70;;
11604;SDS011;5858;43.076;25.626;2024-03-22T09:20:48;2.17;;;1.33;;
11604;SDS011;5858;43.076;25.626;2024-03-22T09:23:13;2.40;;;2.10;;
11604;SDS011;5858;43.076;25.626;2024-03-22T09:25:40;3.10;;;1.90;;
11604;SDS011;5858;43.076;25.626;2024-03-22T09:28:06;2.30;;;1.83;;
11604;SDS011;5858;43.076;25.626;2024-03-22T09:30:33;1.47;;;1.37;;
11604;SDS011;5858;43.076;25.626;2024-03-22T09:33:04;2.10;;;1.80;;
11604;SDS011;5858;43.076;25.626;2024-03-22T09:35:34;2.13;;;1.93;;
11604;SDS011;5858;43.076;25.626;2024-03-22T09:38:00;2.00;;;1.80;;
11604;SDS011;5858;43.076;25.626;2024-03-22T09:40:30;3.53;;;2.47;;
11604;SDS011;5858;43.076;25.626;2024-03-22T09:42:57;3.57;;;2.63;;
11604;SDS011;5858;43.076;25.626;2024-03-22T09:45:31;2.03;;;1.83;;
11604;SDS011;5858;43.076;25.626;2024-03-22T09:47:57;4.00;;;2.93;;
11604;SDS011;5858;43.076;25.626;2024-03-22T09:50:26;2.10;;;1.70;;
11604;SDS011;5858;43.076;25.626;2024-03-22T09:52:53;1.97;;;1.57;;
11604;SDS011;5858;43.076;25.626;2024-03-22T09:55:23;3.70;;;3.23;;
11604;SDS011;5858;43.076;25.626;2024-03-22T09:57:49;2.90;;;2.00;;
11604;SDS011;5858;43.076;25.626;2024-03-22T10:00:19;2.47;;;2.03;;
11604;SDS011;5858;43.076;25.626;2024-03-22T10:02:47;3.03;;;2.23;;
11604;SDS011;5858;43.076;25.626;2024-03-22T10:05:16;2.47;;;2.27;;
11604;SDS011;5858;43.076;25.626;2024-03-22T10:07:44;3.03;;;1.97;;
11604;SDS011;5858;43.076;25.626;2024-03-22T10:10:13;6.10;;;3.67;;
11604;SDS011;5858;43.076;25.626;2024-03-22T10:12:40;3.20;;;2.53;;
11604;SDS011;5858;43.076;25.626;2024-03-22T10:15:09;3.27;;;2.60;;
11604;SDS011;5858;43.076;25.626;2024-03-22T10:17:36;4.77;;;2.93;;
11604;SDS011;5858;43.076;25.626;2024-03-22T10:20:03;2.37;;;2.17;;
11604;SDS011;5858;43.076;25.626;2024-03-22T10:22:32;12.63;;;8.80;;
11604;SDS011;5858;43.076;25.626;2024-03-22T10:25:00;3.27;;;2.20;;
11604;SDS011;5858;43.076;25.626;2024-03-22T10:27:26;3.77;;;2.30;;
11604;SDS011;5858;43.076;25.626;2024-03-22T10:29:54;3.53;;;3.00;;
11604;SDS011;5858;43.076;25.626;2024-03-22T10:32:21;3.20;;;2.70;;
11604;SDS011;5858;43.076;25.626;2024-03-22T10:34:50;3.43;;;2.50;;
11604;SDS011;5858;43.076;25.626;2024-03-22T10:37:16;3.80;;;2.67;;
11604;SDS011;5858;43.076;25.626;2024-03-22T10:39:43;2.93;;;2.70;;
11604;SDS011;5858;43.076;25.626;2024-03-22T10:42:12;2.63;;;2.13;;
11604;SDS011;5858;43.076;25.626;2024-03-22T10:44:41;3.53;;;2.50;;
11604;SDS011;5858;43.076;25.626;2024-03-22T10:47:07;4.03;;;2.97;;
11604;SDS011;5858;43.076;25.626;2024-03-22T10:49:39;3.90;;;2.77;;
11604;SDS011;5858;43.076;25.626;2024-03-22T10:52:06;3.23;;;2.63;;
11604;SDS011;5858;43.076;25.626;2024-03-22T10:54:37;2.67;;;2.47;;
11604;SDS011;5858;43.076;25.626;2024-03-22T10:57:05;3.20;;;2.90;;
11604;SDS011;5858;43.076;25.626;2024-03-22T10:59:40;2.60;;;2.40;;
11604;SDS011;5858;43.076;25.626;2024-03-22T11:02:10;2.97;;;2.13;;
11604;SDS011;5858;43.076;25.626;2024-03-22T11:04:40;2.83;;;2.60;;
11604;SDS011;5858;43.076;25.626;2024-03-22T11:07:06;4.73;;;2.80;;
11604;SDS011;5858;43.076;25.626;2024-03-22T11:09:33;2.93;;;2.07;;
11604;SDS011;5858;43.076;25.626;2024-03-22T11:11:59;2.93;;;2.37;;
11604;SDS011;5858;43.076;25.626;2024-03-22T11:14:26;2.93;;;2.57;;
11604;SDS011;5858;43.076;25.626;2024-03-22T11:16:53;2.60;;;2.40;;
11604;SDS011;5858;43.076;25.626;2024-03-22T11:19:20;3.13;;;2.50;;
11604;SDS011;5858;43.076;25.626;2024-03-22T11:21:46;3.47;;;2.70;;
11604;SDS011;5858;43.076;25.626;2024-03-22T11:24:13;3.50;;;3.13;;
11604;SDS011;5858;43.076;25.626;2024-03-22T11:26:40;3.70;;;2.97;;
11604;SDS011;5858;43.076;25.626;2024-03-22T11:29:09;4.20;;;3.17;;
11604;SDS011;5858;43.076;25.626;2024-03-22T11:31:36;3.00;;;2.70;;
11604;SDS011;5858;43.076;25.626;2024-03-22T11:34:04;2.73;;;2.47;;
11604;SDS011;5858;43.076;25.626;2024-03-22T11:36:30;3.90;;;3.00;;
11604;SDS011;5858;43.076;25.626;2024-03-22T11:39:00;3.13;;;2.83;;
11604;SDS011;5858;43.076;25.626;2024-03-22T11:41:27;3.53;;;2.73;;
11604;SDS011;5858;43.076;25.626;2024-03-22T11:43:59;2.83;;;2.53;;
11604;SDS011;5858;43.076;25.626;2024-03-22T11:46:26;3.17;;;2.87;;
11604;SDS011;5858;43.076;25.626;2024-03-22T11:48:54;3.03;;;2.30;;
11604;SDS011;5858;43.076;25.626;2024-03-22T11:51:23;2.70;;;2.40;;
11604;SDS011;5858;43.076;25.626;2024-03-22T11:53:50;3.17;;;2.57;;
11604;SDS011;5858;43.076;25.626;2024-03-22T11:56:17;3.97;;;2.87;;
11604;SDS011;5858;43.076;25.626;2024-03-22T11:58:45;4.70;;;3.33;;
11604;SDS011;5858;43.076;25.626;2024-03-22T12:01:12;3.57;;;3.13;;
11604;SDS011;5858;43.076;25.626;2024-03-22T12:03:45;3.27;;;2.97;;
11604;SDS011;5858;43.076;25.626;2024-03-22T12:06:14;3.37;;;3.07;;
11604;SDS011;5858;43.076;25.626;2024-03-22T12:08:43;3.77;;;3.47;;
11604;SDS011;5858;43.076;25.626;2024-03-22T12:11:10;3.93;;;3.27;;
11604;SDS011;5858;43.076;25.626;2024-03-22T12:13:37;3.33;;;3.00;;
11604;SDS011;5858;43.076;25.626;2024-03-22T12:16:03;3.67;;;2.83;;
11604;SDS011;5858;43.076;25.626;2024-03-22T12:18:32;4.17;;;3.13;;
11604;SDS011;5858;43.076;25.626;2024-03-22T12:21:00;3.93;;;2.73;;
11604;SDS011;5858;43.076;25.626;2024-03-22T12:23:28;4.75;;;3.20;;
11604;SDS011;5858;43.076;25.626;2024-03-22T12:25:59;3.20;;;2.90;;
11604;SDS011;5858;43.076;25.626;2024-03-22T12:28:28;3.30;;;2.80;;
11604;SDS011;5858;43.076;25.626;2024-03-22T12:30:54;3.33;;;2.80;;
11604;SDS011;5858;43.076;25.626;2024-03-22T12:33:21;3.43;;;3.03;;
11604;SDS011;5858;43.076;25.626;2024-03-22T12:35:49;5.30;;;2.80;;
11604;SDS011;5858;43.076;25.626;2024-03-22T12:38:16;3.90;;;3.43;;
11604;SDS011;5858;43.076;25.626;2024-03-22T12:40:43;3.60;;;2.83;;
11604;SDS011;5858;43.076;25.626;2024-03-22T12:43:12;4.93;;;2.87;;
11604;SDS011;5858;43.076;25.626;2024-03-22T12:45:38;3.80;;;3.10;;
11604;SDS011;5858;43.076;25.626;2024-03-22T12:48:05;3.73;;;3.03;;
11604;SDS011;5858;43.076;25.626;2024-03-22T12:50:31;4.37;;;3.40;;
11604;SDS011;5858;43.076;25.626;2024-03-22T12:52:59;5.70;;;3.33;;
11604;SDS011;5858;43.076;25.626;2024-03-22T12:55:24;3.63;;;3.10;;
11604;SDS011;5858;43.076;25.626;2024-03-22T12:57:57;4.27;;;3.30;;
11604;SDS011;5858;43.076;25.626;2024-03-22T13:00:28;4.07;;;3.17;;
11604;SDS011;5858;43.076;25.626;2024-03-22T13:02:54;3.90;;;2.90;;
11604;SDS011;5858;43.076;25.626;2024-03-22T13:05:20;3.30;;;2.90;;
11604;SDS011;5858;43.076;25.626;2024-03-22T13:07:50;4.10;;;3.13;;
11604;SDS011;5858;43.076;25.626;2024-03-22T13:10:15;4.77;;;3.43;;
11604;SDS011;5858;43.076;25.626;2024-03-22T13:12:46;4.13;;;3.73;;
11604;SDS011;5858;43.076;25.626;2024-03-22T13:15:12;4.40;;;3.33;;
11604;SDS011;5858;43.076;25.626;2024-03-22T13:17:41;3.97;;;3.30;;
11604;SDS011;5858;43.076;25.626;2024-03-22T13:20:10;3.43;;;2.93;;
11604;SDS011;5858;43.076;25.626;2024-03-22T13:22:41;5.03;;;3.23;;
11604;SDS011;5858;43.076;25.626;2024-03-22T13:25:09;3.07;;;2.77;;
11604;SDS011;5858;43.076;25.626;2024-03-22T13:27:36;3.90;;;3.03;;
11604;SDS011;5858;43.076;25.626;2024-03-22T13:30:04;6.83;;;3.50;;
11604;SDS011;5858;43.076;25.626;2024-03-22T13:32:35;6.23;;;3.30;;
11604;SDS011;5858;43.076;25.626;2024-03-22T13:35:04;3.37;;;3.00;;
11604;SDS011;5858;43.076;25.626;2024-03-22T13:37:32;3.57;;;3.23;;
11604;SDS011;5858;43.076;25.626;2024-03-22T13:40:01;3.73;;;2.77;;
11604;SDS011;5858;43.076;25.626;2024-03-22T13:42:28;3.87;;;2.63;;
11604;SDS011;5858;43.076;25.626;2024-03-22T13:44:55;4.73;;;2.80;;
11604;SDS011;5858;43.076;25.626;2024-03-22T13:47:25;4.30;;;2.87;;
11604;SDS011;5858;43.076;25.626;2024-03-22T13:49:54;3.50;;;2.80;;
11604;SDS011;5858;43.076;25.626;2024-03-22T13:52:22;4.13;;;2.93;;
11604;SDS011;5858;43.076;25.626;2024-03-22T13:54:51;4.23;;;3.30;;
11604;SDS011;5858;43.076;25.626;2024-03-22T13:57:18;3.63;;;2.60;;
11604;SDS011;5858;43.076;25.626;2024-03-22T13:59:44;3.27;;;2.97;;
11604;SDS011;5858;43.076;25.626;2024-03-22T14:02:12;3.17;;;2.80;;
11604;SDS011;5858;43.076;25.626;2024-03-22T14:04:38;4.43;;;3.10;;
11604;SDS011;5858;43.076;25.626;2024-03-22T14:07:07;4.87;;;2.90;;
11604;SDS011;5858;43.076;25.626;2024-03-22T14:09:38;4.97;;;2.50;;
11604;SDS011;5858;43.076;25.626;2024-03-22T14:12:05;3.63;;;3.20;;
11604;SDS011;5858;43.076;25.626;2024-03-22T14:14:31;4.00;;;2.97;;
11604;SDS011;5858;43.076;25.626;2024-03-22T14:17:03;4.50;;;3.23;;
11604;SDS011;5858;43.076;25.626;2024-03-22T14:19:29;3.50;;;3.20;;
11604;SDS011;5858;43.076;25.626;2024-03-22T14:21:55;3.97;;;2.80;;
11604;SDS011;5858;43.076;25.626;2024-03-22T14:24:21;3.40;;;3.10;;
11604;SDS011;5858;43.076;25.626;2024-03-22T14:26:54;4.77;;;2.80;;
11604;SDS011;5858;43.076;25.626;2024-03-22T14:29:23;3.83;;;3.00;;
11604;SDS011;5858;43.076;25.626;2024-03-22T14:31:57;5.67;;;3.20;;
11604;SDS011;5858;43.076;25.626;2024-03-22T14:34:26;3.67;;;3.10;;
11604;SDS011;5858;43.076;25.626;2024-03-22T14:36:57;4.27;;;3.13;;
11604;SDS011;5858;43.076;25.626;2024-03-22T14:39:31;3.40;;;3.10;;
11604;SDS011;5858;43.076;25.626;2024-03-22T14:42:17;2.90;;;2.50;;
11604;SDS011;5858;43.076;25.626;2024-03-22T14:45:09;3.30;;;2.53;;